Time,TemperatureF,DewpointF,PressureIn,WindDirection,WindDirectionDegrees,WindSpeedMPH,WindSpeedGustMPH,Humidity,HourlyPrecipIn,Conditions,Clouds,dailyrainin,SoftwareType,DateUTC
2013-06-07 00:03:00,76.0,73.0,29.88,WSW,248,0.0,2.0,90,0.00,,,0.78,,2013-06-07 04:03:00,
2013-06-07 00:12:00,76.0,73.0,29.88,WSW,248,0.0,2.0,90,0.00,,,0.78,,2013-06-07 04:12:00,
2013-06-07 00:23:00,76.0,73.0,29.87,SSE,152,0.0,1.0,91,0.00,,,0.78,,2013-06-07 04:23:00,
2013-06-07 00:33:00,76.0,74.0,29.88,SW,233,2.0,5.0,92,0.00,,,0.78,,2013-06-07 04:33:00,
2013-06-07 00:42:00,76.0,74.0,29.88,SW,233,2.0,5.0,92,0.00,,,0.78,,2013-06-07 04:42:00,
2013-06-07 00:53:00,76.0,73.0,29.88,SW,226,1.0,3.0,91,0.00,,,0.78,,2013-06-07 04:53:00,
2013-06-07 01:03:00,76.0,74.0,29.88,WSW,247,2.0,3.0,92,0.00,,,0.78,,2013-06-07 05:03:00,
2013-06-07 01:12:00,76.0,74.0,29.88,WSW,247,2.0,3.0,92,0.00,,,0.78,,2013-06-07 05:12:00,
2013-06-07 01:22:00,76.0,74.0,29.88,WSW,238,1.0,2.0,92,0.00,,,0.78,,2013-06-07 05:22:00,
2013-06-07 01:32:00,76.0,74.0,29.89,SW,214,0.0,2.0,93,0.00,,,0.78,,2013-06-07 05:32:00,
2013-06-07 01:42:00,76.0,74.0,29.89,SW,214,0.0,2.0,93,0.00,,,0.78,,2013-06-07 05:42:00,
2013-06-07 01:52:00,76.0,74.0,29.89,West,262,0.0,2.0,93,0.00,,,0.78,,2013-06-07 05:52:00,
2013-06-07 02:02:00,76.0,74.0,29.89,SW,232,1.0,3.0,93,0.00,,,0.78,,2013-06-07 06:02:00,
2013-06-07 02:12:00,76.0,74.0,29.89,SW,232,1.0,3.0,93,0.00,,,0.78,,2013-06-07 06:12:00,
2013-06-07 02:22:00,77.0,75.0,29.89,SW,232,1.0,4.0,93,0.00,,,0.78,,2013-06-07 06:22:00,
2013-06-07 02:32:00,77.0,74.0,29.89,WSW,248,1.0,3.0,92,0.00,,,0.78,,2013-06-07 06:32:00,
2013-06-07 02:42:00,77.0,74.0,29.89,WSW,248,1.0,3.0,92,0.00,,,0.78,,2013-06-07 06:42:00,
2013-06-07 02:52:00,77.0,74.0,29.89,SW,223,0.0,3.0,92,0.00,,,0.78,,2013-06-07 06:52:00,
2013-06-07 03:02:00,77.0,74.0,29.89,WSW,248,0.0,2.0,92,0.00,,,0.78,,2013-06-07 07:02:00,
2013-06-07 03:12:00,77.0,74.0,29.89,WSW,248,0.0,2.0,92,0.00,,,0.78,,2013-06-07 07:12:00,
2013-06-07 03:22:00,77.0,74.0,29.88,SW,236,0.0,3.0,92,0.00,,,0.78,,2013-06-07 07:22:00,
2013-06-07 03:32:00,77.0,74.0,29.88,SW,235,0.0,2.0,92,0.00,,,0.78,,2013-06-07 07:32:00,
2013-06-07 03:42:00,77.0,74.0,29.88,SW,235,0.0,2.0,92,0.00,,,0.78,,2013-06-07 07:42:00,
2013-06-07 03:52:00,77.0,74.0,29.88,WSW,255,0.0,1.0,91,0.00,,,0.78,,2013-06-07 07:52:00,
2013-06-07 04:02:00,77.0,74.0,29.88,WSW,246,0.0,1.0,91,0.00,,,0.78,,2013-06-07 08:02:00,
2013-06-07 04:12:00,77.0,74.0,29.88,WSW,246,0.0,1.0,91,0.00,,,0.78,,2013-06-07 08:12:00,
2013-06-07 04:22:00,77.0,74.0,29.88,SSW,201,0.0,1.0,92,0.00,,,0.69,,2013-06-07 08:22:00,
2013-06-07 04:32:00,76.0,74.0,29.88,SSE,167,0.0,1.0,92,0.00,,,0.69,,2013-06-07 08:32:00,
2013-06-07 04:43:00,76.0,74.0,29.88,SSE,167,0.0,1.0,92,0.00,,,0.69,,2013-06-07 08:43:00,
2013-06-07 04:52:00,76.0,74.0,29.88,SW,218,0.0,1.0,93,0.00,,,0.69,,2013-06-07 08:52:00,
2013-06-07 05:02:00,76.0,74.0,29.90,SW,221,0.0,1.0,93,0.00,,,0.69,,2013-06-07 09:02:00,
2013-06-07 05:12:00,76.0,74.0,29.90,SW,221,0.0,1.0,93,0.00,,,0.69,,2013-06-07 09:12:00,
2013-06-07 05:22:00,76.0,74.0,29.90,ESE,111,0.0,1.0,93,0.00,,,0.40,,2013-06-07 09:22:00,
2013-06-07 05:32:00,76.0,74.0,29.90,WSW,240,0.0,0.0,94,0.00,,,0.40,,2013-06-07 09:32:00,
2013-06-07 05:43:00,76.0,74.0,29.90,WSW,240,0.0,0.0,94,0.00,,,0.40,,2013-06-07 09:43:00,
2013-06-07 05:53:00,76.0,74.0,29.91,SSW,200,0.0,1.0,94,0.00,,,0.40,,2013-06-07 09:53:00,
2013-06-07 06:02:00,76.0,74.0,29.91,SSW,210,0.0,1.0,95,0.00,,,0.40,,2013-06-07 10:02:00,
2013-06-07 06:13:00,76.0,74.0,29.91,SSW,210,0.0,1.0,95,0.00,,,0.40,,2013-06-07 10:13:00,
2013-06-07 06:23:00,76.0,74.0,29.91,South,183,1.0,3.0,95,0.00,,,0.35,,2013-06-07 10:23:00,
2013-06-07 06:33:00,76.0,74.0,29.92,WSW,249,0.0,1.0,95,0.00,,,0.35,,2013-06-07 10:33:00,
2013-06-07 06:42:00,76.0,74.0,29.92,WSW,249,0.0,1.0,95,0.00,,,0.35,,2013-06-07 10:42:00,
2013-06-07 06:53:00,76.0,74.0,29.93,SW,228,0.0,2.0,94,0.00,,,0.35,,2013-06-07 10:53:00,
2013-06-07 07:02:00,76.0,74.0,29.93,SW,214,0.0,2.0,94,0.00,,,0.35,,2013-06-07 11:02:00,
2013-06-07 07:12:00,76.0,74.0,29.93,SW,214,0.0,2.0,94,0.00,,,0.35,,2013-06-07 11:12:00,
2013-06-07 07:22:00,77.0,75.0,29.93,SW,223,0.0,2.0,94,0.00,,,0.20,,2013-06-07 11:22:00,
2013-06-07 07:32:00,77.0,75.0,29.93,WSW,243,2.0,4.0,94,0.00,,,0.20,,2013-06-07 11:32:00,
2013-06-07 07:42:00,77.0,75.0,29.93,WSW,243,2.0,4.0,94,0.00,,,0.20,,2013-06-07 11:42:00,
2013-06-07 07:52:00,79.0,77.0,29.92,West,262,1.0,6.0,93,0.00,,,0.20,,2013-06-07 11:52:00,
2013-06-07 08:02:00,79.0,76.0,29.92,SW,224,4.0,8.0,91,0.00,,,0.20,,2013-06-07 12:02:00,
2013-06-07 08:12:00,79.0,76.0,29.92,SW,224,4.0,8.0,91,0.00,,,0.20,,2013-06-07 12:12:00,
2013-06-07 08:22:00,79.0,76.0,29.93,WSW,242,3.0,8.0,91,0.00,,,0.20,,2013-06-07 12:22:00,
2013-06-07 08:32:00,80.0,77.0,29.92,SW,236,2.0,6.0,91,0.00,,,0.18,,2013-06-07 12:32:00,
2013-06-07 08:42:00,80.0,77.0,29.92,SW,236,2.0,6.0,91,0.00,,,0.18,,2013-06-07 12:42:00,
2013-06-07 08:52:00,81.0,77.0,29.93,SW,236,4.0,9.0,88,0.00,,,0.18,,2013-06-07 12:52:00,
2013-06-07 09:02:00,82.0,78.0,29.93,SSW,208,4.0,10.0,87,0.00,,,0.18,,2013-06-07 13:02:00,
2013-06-07 09:13:00,82.0,78.0,29.93,SSW,208,4.0,10.0,87,0.00,,,0.18,,2013-06-07 13:13:00,
2013-06-07 09:22:00,83.0,78.0,29.93,WSW,248,4.0,10.0,85,0.00,,,0.18,,2013-06-07 13:22:00,
2013-06-07 09:32:00,84.0,79.0,29.94,WSW,256,6.0,11.0,84,0.00,,,0.18,,2013-06-07 13:32:00,
2013-06-07 09:42:00,84.0,79.0,29.94,WSW,256,6.0,11.0,84,0.00,,,0.18,,2013-06-07 13:42:00,
2013-06-07 09:52:00,84.0,78.0,29.95,WSW,257,6.0,13.0,82,0.00,,,0.18,,2013-06-07 13:52:00,
2013-06-07 10:02:00,85.0,78.0,29.96,SW,226,4.0,12.0,81,0.00,,,0.18,,2013-06-07 14:02:00,
2013-06-07 10:12:00,85.0,78.0,29.96,SW,226,4.0,12.0,81,0.00,,,0.18,,2013-06-07 14:12:00,
2013-06-07 10:23:00,85.0,78.0,29.96,WSW,248,7.0,13.0,81,0.00,,,0.18,,2013-06-07 14:23:00,
2013-06-07 10:33:00,85.0,78.0,29.96,West,260,5.0,11.0,80,0.00,,,0.18,,2013-06-07 14:33:00,
2013-06-07 10:42:00,85.0,78.0,29.96,WNW,283,4.0,11.0,81,0.00,,,0.18,,2013-06-07 14:42:00,
2013-06-07 10:52:00,85.0,78.0,29.96,WNW,283,4.0,11.0,81,0.00,,,0.18,,2013-06-07 14:52:00,
2013-06-07 11:02:00,85.0,79.0,29.96,WSW,242,5.0,8.0,82,0.00,,,0.18,,2013-06-07 15:02:00,
2013-06-07 11:12:00,85.0,79.0,29.96,WSW,242,5.0,8.0,82,0.00,,,0.18,,2013-06-07 15:12:00,
2013-06-07 11:23:00,86.0,78.0,29.96,SW,232,7.0,12.0,77,0.00,,,0.18,,2013-06-07 15:23:00,
2013-06-07 11:33:00,87.0,79.0,29.96,West,270,6.0,9.0,77,0.00,,,0.18,,2013-06-07 15:33:00,
2013-06-07 11:43:00,87.0,79.0,29.96,West,270,6.0,9.0,77,0.00,,,0.18,,2013-06-07 15:43:00,
2013-06-07 11:53:00,87.0,78.0,29.96,West,263,3.0,8.0,76,0.00,,,0.18,,2013-06-07 15:53:00,
2013-06-07 12:03:00,86.0,78.0,29.97,SW,228,9.0,16.0,76,0.02,,,0.20,,2013-06-07 16:03:00,
2013-06-07 12:13:00,86.0,78.0,29.97,SW,228,9.0,16.0,76,0.02,,,0.20,,2013-06-07 16:13:00,
2013-06-07 12:22:00,83.0,78.0,29.96,WSW,256,3.0,5.0,86,0.05,,,0.23,,2013-06-07 16:22:00,
2013-06-07 12:33:00,84.0,79.0,29.96,SSW,203,4.0,12.0,85,0.05,,,0.23,,2013-06-07 16:33:00,
2013-06-07 12:43:00,84.0,79.0,29.96,SSW,203,4.0,12.0,85,0.05,,,0.23,,2013-06-07 16:43:00,
2013-06-07 12:53:00,85.0,80.0,29.95,WSW,250,3.0,7.0,84,0.05,,,0.23,,2013-06-07 16:53:00,
2013-06-07 13:03:00,86.0,79.0,29.96,WSW,245,3.0,7.0,81,0.05,,,0.23,,2013-06-07 17:03:00,
2013-06-07 13:13:00,86.0,79.0,29.96,WSW,245,3.0,7.0,81,0.05,,,0.23,,2013-06-07 17:13:00,
2013-06-07 13:23:00,86.0,76.0,29.95,WSW,257,9.0,17.0,73,0.00,,,0.23,,2013-06-07 17:23:00,
2013-06-07 13:32:00,86.0,78.0,29.95,West,259,6.0,11.0,78,0.00,,,0.23,,2013-06-07 17:32:00,
2013-06-07 13:43:00,86.0,78.0,29.95,West,259,6.0,11.0,78,0.00,,,0.23,,2013-06-07 17:43:00,
2013-06-07 13:52:00,82.0,76.0,29.96,WSW,249,7.0,20.0,83,0.01,,,0.24,,2013-06-07 17:52:00,
2013-06-07 14:07:00,80.0,76.0,29.96,SE,124,1.0,7.0,88,0.01,,,0.24,,2013-06-07 18:07:00,
2013-06-07 14:20:00,80.0,76.0,29.96,SE,124,1.0,7.0,88,0.01,,,0.24,,2013-06-07 18:20:00,
2013-06-07 14:26:00,79.0,75.0,29.95,West,262,1.0,6.0,89,0.01,,,0.24,,2013-06-07 18:26:00,
2013-06-07 14:35:00,80.0,76.0,29.95,NNE,29,0.0,2.0,89,0.01,,,0.24,,2013-06-07 18:35:00,
2013-06-07 14:45:00,80.0,76.0,29.95,NNE,29,0.0,2.0,89,0.01,,,0.24,,2013-06-07 18:45:00,
2013-06-07 15:00:00,80.0,76.0,29.96,East,82,1.0,5.0,89,0.18,,,0.42,,2013-06-07 19:00:00,
2013-06-07 15:08:00,79.0,77.0,29.96,ENE,77,3.0,6.0,94,0.21,,,0.45,,2013-06-07 19:08:00,
2013-06-07 15:15:00,79.0,77.0,29.96,ENE,77,3.0,6.0,94,0.21,,,0.45,,2013-06-07 19:15:00,
2013-06-07 15:29:00,78.0,75.0,29.96,NE,50,5.0,13.0,92,0.31,,,0.52,,2013-06-07 19:29:00,
2013-06-07 15:59:00,76.0,74.0,29.95,NE,39,3.0,8.0,95,0.49,,,0.90,,2013-06-07 19:59:00,
2013-06-07 16:07:00,76.0,74.0,29.97,ENE,74,4.0,8.0,94,0.51,,,0.93,,2013-06-07 20:07:00,
2013-06-07 16:16:00,76.0,74.0,29.97,ENE,74,4.0,8.0,94,0.51,,,0.93,,2013-06-07 20:16:00,
2013-06-07 16:26:00,76.0,74.0,29.96,NE,51,2.0,7.0,95,0.43,,,0.96,,2013-06-07 20:26:00,
2013-06-07 16:38:00,77.0,75.0,29.96,South,184,1.0,6.0,95,0.14,,,0.96,,2013-06-07 20:38:00,
2013-06-07 16:47:00,77.0,75.0,29.96,South,184,1.0,6.0,95,0.14,,,0.96,,2013-06-07 20:47:00,
2013-06-07 16:58:00,77.0,75.0,29.95,ESE,117,5.0,10.0,95,0.10,,,1.00,,2013-06-07 20:58:00,
2013-06-07 17:05:00,78.0,75.0,29.95,SSE,163,4.0,11.0,92,0.06,,,1.00,,2013-06-07 21:05:00,
2013-06-07 17:28:00,77.0,75.0,29.94,ENE,72,2.0,9.0,93,0.19,,,1.14,,2013-06-07 21:28:00,
2013-06-07 17:39:00,76.0,74.0,29.95,East,88,1.0,4.0,94,0.20,,,1.15,,2013-06-07 21:39:00,
2013-06-07 17:45:00,76.0,74.0,29.95,East,88,1.0,4.0,94,0.20,,,1.15,,2013-06-07 21:45:00,
2013-06-07 18:02:00,76.0,74.0,29.96,NW,316,1.0,6.0,95,0.16,,,1.15,,2013-06-07 22:02:00,
2013-06-07 18:08:00,77.0,75.0,29.96,NE,36,1.0,5.0,95,0.16,,,1.15,,2013-06-07 22:08:00,
2013-06-07 18:28:00,77.0,75.0,29.96,NNE,32,2.0,6.0,95,0.14,,,1.22,,2013-06-07 22:28:00,
2013-06-07 18:38:00,77.0,75.0,29.96,East,94,1.0,7.0,95,0.14,,,1.23,,2013-06-07 22:38:00,
2013-06-07 18:47:00,77.0,75.0,29.96,East,94,1.0,7.0,95,0.14,,,1.23,,2013-06-07 22:47:00,
2013-06-07 19:00:00,77.0,75.0,29.96,East,97,1.0,5.0,95,0.15,,,1.24,,2013-06-07 23:00:00,
2013-06-07 19:09:00,77.0,75.0,29.97,East,95,1.0,6.0,95,0.21,,,1.30,,2013-06-07 23:09:00,
2013-06-07 19:19:00,77.0,75.0,29.97,East,95,1.0,6.0,95,0.21,,,1.30,,2013-06-07 23:19:00,
2013-06-07 19:30:00,76.0,74.0,29.97,East,96,0.0,2.0,95,0.08,,,1.28,,2013-06-07 23:30:00,
2013-06-07 19:50:00,76.0,74.0,29.99,ENE,68,0.0,10.0,95,0.06,,,1.28,,2013-06-07 23:50:00,
2013-06-07 20:04:00,76.0,74.0,29.98,ENE,60,3.0,5.0,95,0.27,,,1.49,,2013-06-08 00:04:00,
2013-06-07 20:12:00,76.0,74.0,30.00,ENE,68,3.0,7.0,95,0.24,,,1.51,,2013-06-08 00:12:00,
2013-06-07 20:18:00,76.0,75.0,30.01,East,101,0.0,3.0,96,0.23,,,1.46,,2013-06-08 00:18:00,
2013-06-07 20:35:00,76.0,75.0,30.01,East,93,1.0,5.0,96,0.23,,,1.46,,2013-06-08 00:35:00,
2013-06-07 20:45:00,76.0,75.0,30.01,East,93,1.0,5.0,96,0.23,,,1.46,,2013-06-08 00:45:00,
2013-06-07 21:01:00,76.0,75.0,30.00,ESE,121,0.0,1.0,96,0.00,,,1.46,,2013-06-08 01:01:00,
2013-06-07 21:07:00,76.0,75.0,29.98,ENE,75,0.0,2.0,96,0.00,,,1.46,,2013-06-08 01:07:00,
2013-06-07 21:19:00,76.0,75.0,29.98,ENE,75,0.0,2.0,96,0.00,,,1.46,,2013-06-08 01:19:00,
2013-06-07 21:29:00,75.0,74.0,29.98,ESE,108,1.0,5.0,96,0.00,,,1.46,,2013-06-08 01:29:00,
2013-06-07 21:38:00,75.0,74.0,29.98,ESE,117,0.0,5.0,96,0.00,,,1.46,,2013-06-08 01:38:00,
2013-06-07 21:45:00,75.0,74.0,29.98,ESE,117,0.0,5.0,96,0.00,,,1.46,,2013-06-08 01:45:00,
2013-06-07 22:02:00,75.0,74.0,29.99,ESE,115,0.0,1.0,96,0.00,,,1.46,,2013-06-08 02:02:00,
2013-06-07 22:09:00,74.0,73.0,29.99,SE,127,0.0,3.0,96,0.00,,,1.46,,2013-06-08 02:09:00,
2013-06-07 22:15:00,74.0,73.0,29.99,SE,127,0.0,3.0,96,0.00,,,1.46,,2013-06-08 02:15:00,
2013-06-07 22:29:00,74.0,73.0,30.01,SSE,156,0.0,3.0,96,0.00,,,1.45,,2013-06-08 02:29:00,
2013-06-07 22:47:00,75.0,74.0,30.01,South,177,0.0,2.0,97,0.00,,,1.45,,2013-06-08 02:47:00,
2013-06-07 22:59:00,75.0,74.0,30.01,South,177,0.0,2.0,97,0.00,,,1.45,,2013-06-08 02:59:00,
2013-06-07 23:17:00,75.0,74.0,30.02,SW,236,0.0,1.0,97,0.00,,,1.45,,2013-06-08 03:17:00,
2013-06-07 23:27:00,75.0,74.0,30.02,SSE,163,0.0,1.0,97,0.00,,,1.45,,2013-06-08 03:27:00,
2013-06-07 23:37:00,75.0,74.0,30.02,SSW,210,0.0,2.0,97,0.00,,,1.45,,2013-06-08 03:37:00,
2013-06-07 23:52:00,75.0,74.0,30.02,SSW,210,0.0,2.0,97,0.00,,,1.45,,2013-06-08 03:52:00,